sensor_id;sensor_type;location;lat;lon;timestamp;temperature;humidity
3312;DHT22;1668;49.648;8.570;2022-07-23T00:00:07;25.10;84.20
3312;DHT22;1668;49.648;8.570;2022-07-23T00:02:34;25.00;84.90
3312;DHT22;1668;49.648;8.570;2022-07-23T00:05:02;24.90;85.30
3312;DHT22;1668;49.648;8.570;2022-07-23T00:07:29;24.80;86.60
3312;DHT22;1668;49.648;8.570;2022-07-23T00:09:57;24.70;87.30
3312;DHT22;1668;49.648;8.570;2022-07-23T00:12:25;24.80;87.90
3312;DHT22;1668;49.648;8.570;2022-07-23T00:14:52;24.50;88.90
3312;DHT22;1668;49.648;8.570;2022-07-23T00:17:18;24.40;90.30
3312;DHT22;1668;49.648;8.570;2022-07-23T00:19:45;24.30;91.00
3312;DHT22;1668;49.648;8.570;2022-07-23T00:22:12;24.30;91.70
3312;DHT22;1668;49.648;8.570;2022-07-23T00:24:39;24.30;92.50
3312;DHT22;1668;49.648;8.570;2022-07-23T00:27:07;24.30;93.40
3312;DHT22;1668;49.648;8.570;2022-07-23T00:29:34;24.20;94.30
3312;DHT22;1668;49.648;8.570;2022-07-23T00:32:01;24.30;94.70
3312;DHT22;1668;49.648;8.570;2022-07-23T00:34:28;24.20;94.70
3312;DHT22;1668;49.648;8.570;2022-07-23T00:36:55;24.20;96.90
3312;DHT22;1668;49.648;8.570;2022-07-23T00:39:22;24.20;97.80
3312;DHT22;1668;49.648;8.570;2022-07-23T00:41:49;24.10;99.90
3312;DHT22;1668;49.648;8.570;2022-07-23T00:44:19;24.10;99.90
3312;DHT22;1668;49.648;8.570;2022-07-23T00:46:48;24.00;99.70
3312;DHT22;1668;49.648;8.570;2022-07-23T00:49:15;23.90;99.90
3312;DHT22;1668;49.648;8.570;2022-07-23T00:51:42;24.00;99.40
3312;DHT22;1668;49.648;8.570;2022-07-23T00:54:09;23.90;99.10
3312;DHT22;1668;49.648;8.570;2022-07-23T00:56:36;23.90;98.70
3312;DHT22;1668;49.648;8.570;2022-07-23T00:59:03;24.00;98.40
3312;DHT22;1668;49.648;8.570;2022-07-23T01:01:33;23.90;98.80
3312;DHT22;1668;49.648;8.570;2022-07-23T01:04:00;23.80;99.30
3312;DHT22;1668;49.648;8.570;2022-07-23T01:06:27;23.70;99.40
3312;DHT22;1668;49.648;8.570;2022-07-23T01:08:54;23.60;99.90
3312;DHT22;1668;49.648;8.570;2022-07-23T01:11:23;23.60;99.90
3312;DHT22;1668;49.648;8.570;2022-07-23T01:13:51;23.40;99.90
3312;DHT22;1668;49.648;8.570;2022-07-23T01:16:19;23.40;99.90
3312;DHT22;1668;49.648;8.570;2022-07-23T01:18:47;23.40;99.90
3312;DHT22;1668;49.648;8.570;2022-07-23T01:21:17;23.30;99.90
3312;DHT22;1668;49.648;8.570;2022-07-23T01:23:45;23.20;99.90
3312;DHT22;1668;49.648;8.570;2022-07-23T01:26:12;23.30;99.90
3312;DHT22;1668;49.648;8.570;2022-07-23T01:28:42;23.20;99.90
3312;DHT22;1668;49.648;8.570;2022-07-23T01:31:09;23.20;99.90
3312;DHT22;1668;49.648;8.570;2022-07-23T01:33:36;23.20;99.90
3312;DHT22;1668;49.648;8.570;2022-07-23T01:36:04;23.20;99.90
3312;DHT22;1668;49.648;8.570;2022-07-23T01:38:31;23.00;99.90
3312;DHT22;1668;49.648;8.570;2022-07-23T01:40:59;23.10;99.90
3312;DHT22;1668;49.648;8.570;2022-07-23T01:43:26;23.10;99.90
3312;DHT22;1668;49.648;8.570;2022-07-23T01:45:53;23.00;99.90
3312;DHT22;1668;49.648;8.570;2022-07-23T01:48:20;23.00;99.90
3312;DHT22;1668;49.648;8.570;2022-07-23T01:50:47;22.90;99.90
3312;DHT22;1668;49.648;8.570;2022-07-23T01:53:14;22.80;99.90
3312;DHT22;1668;49.648;8.570;2022-07-23T01:55:41;22.80;99.90
3312;DHT22;1668;49.648;8.570;2022-07-23T01:58:09;22.80;99.90
3312;DHT22;1668;49.648;8.570;2022-07-23T02:00:36;22.80;99.90
3312;DHT22;1668;49.648;8.570;2022-07-23T02:03:03;22.70;99.90
3312;DHT22;1668;49.648;8.570;2022-07-23T02:05:31;22.70;99.90
3312;DHT22;1668;49.648;8.570;2022-07-23T02:07:58;22.60;99.90
3312;DHT22;1668;49.648;8.570;2022-07-23T02:10:26;22.60;99.90
3312;DHT22;1668;49.648;8.570;2022-07-23T02:12:53;22.60;99.90
3312;DHT22;1668;49.648;8.570;2022-07-23T02:15:21;22.60;99.90
3312;DHT22;1668;49.648;8.570;2022-07-23T02:17:48;22.60;99.90
3312;DHT22;1668;49.648;8.570;2022-07-23T02:20:15;22.50;99.90
3312;DHT22;1668;49.648;8.570;2022-07-23T02:22:42;22.50;99.90
3312;DHT22;1668;49.648;8.570;2022-07-23T02:25:09;22.50;99.90
3312;DHT22;1668;49.648;8.570;2022-07-23T02:27:37;22.40;99.90
3312;DHT22;1668;49.648;8.570;2022-07-23T02:30:05;22.40;99.90
3312;DHT22;1668;49.648;8.570;2022-07-23T02:32:33;22.40;99.90
3312;DHT22;1668;49.648;8.570;2022-07-23T02:35:00;22.40;99.90
3312;DHT22;1668;49.648;8.570;2022-07-23T02:37:28;22.40;99.90
3312;DHT22;1668;49.648;8.570;2022-07-23T02:39:54;22.40;99.90
3312;DHT22;1668;49.648;8.570;2022-07-23T02:42:21;22.40;99.90
3312;DHT22;1668;49.648;8.570;2022-07-23T02:44:49;22.40;99.90
3312;DHT22;1668;49.648;8.570;2022-07-23T02:47:16;22.40;99.90
3312;DHT22;1668;49.648;8.570;2022-07-23T02:49:44;22.40;99.90
3312;DHT22;1668;49.648;8.570;2022-07-23T02:52:11;22.40;99.90
3312;DHT22;1668;49.648;8.570;2022-07-23T02:54:38;22.40;99.90
3312;DHT22;1668;49.648;8.570;2022-07-23T02:57:05;22.40;99.90
3312;DHT22;1668;49.648;8.570;2022-07-23T02:59:32;22.40;99.90
3312;DHT22;1668;49.648;8.570;2022-07-23T03:01:59;22.30;99.90
3312;DHT22;1668;49.648;8.570;2022-07-23T03:04:26;22.30;99.90
3312;DHT22;1668;49.648;8.570;2022-07-23T03:06:54;22.20;99.90
3312;DHT22;1668;49.648;8.570;2022-07-23T03:09:21;22.20;99.90
3312;DHT22;1668;49.648;8.570;2022-07-23T03:11:48;22.20;99.90
3312;DHT22;1668;49.648;8.570;2022-07-23T03:14:15;22.20;99.90
3312;DHT22;1668;49.648;8.570;2022-07-23T03:16:42;22.20;99.90
3312;DHT22;1668;49.648;8.570;2022-07-23T03:19:09;22.20;99.90
3312;DHT22;1668;49.648;8.570;2022-07-23T03:21:36;22.10;99.90
3312;DHT22;1668;49.648;8.570;2022-07-23T03:24:07;22.20;99.90
3312;DHT22;1668;49.648;8.570;2022-07-23T03:26:35;22.20;99.90
3312;DHT22;1668;49.648;8.570;2022-07-23T03:29:02;22.20;99.90
3312;DHT22;1668;49.648;8.570;2022-07-23T03:31:29;22.10;99.90
3312;DHT22;1668;49.648;8.570;2022-07-23T03:33:57;22.00;99.90
3312;DHT22;1668;49.648;8.570;2022-07-23T03:36:24;22.00;99.90
3312;DHT22;1668;49.648;8.570;2022-07-23T03:38:51;22.00;99.90
3312;DHT22;1668;49.648;8.570;2022-07-23T03:41:20;21.90;99.90
3312;DHT22;1668;49.648;8.570;2022-07-23T03:43:47;21.90;99.90
3312;DHT22;1668;49.648;8.570;2022-07-23T03:46:14;21.90;99.90
3312;DHT22;1668;49.648;8.570;2022-07-23T03:48:41;21.90;99.90
3312;DHT22;1668;49.648;8.570;2022-07-23T03:51:08;21.90;99.90
3312;DHT22;1668;49.648;8.570;2022-07-23T03:53:35;21.80;99.90
3312;DHT22;1668;49.648;8.570;2022-07-23T03:56:02;21.80;99.90
3312;DHT22;1668;49.648;8.570;2022-07-23T03:58:30;21.80;99.90
3312;DHT22;1668;49.648;8.570;2022-07-23T04:00:57;21.80;99.90
3312;DHT22;1668;49.648;8.570;2022-07-23T04:03:24;21.80;99.90
3312;DHT22;1668;49.648;8.570;2022-07-23T04:05:51;21.80;99.90
3312;DHT22;1668;49.648;8.570;2022-07-23T04:08:18;21.80;99.90
3312;DHT22;1668;49.648;8.570;2022-07-23T04:10:44;21.80;99.90
3312;DHT22;1668;49.648;8.570;2022-07-23T04:13:11;21.70;99.90
3312;DHT22;1668;49.648;8.570;2022-07-23T04:15:40;21.70;99.90
3312;DHT22;1668;49.648;8.570;2022-07-23T04:18:06;21.60;99.90
3312;DHT22;1668;49.648;8.570;2022-07-23T04:20:34;21.50;99.90
3312;DHT22;1668;49.648;8.570;2022-07-23T04:23:01;21.50;99.90
3312;DHT22;1668;49.648;8.570;2022-07-23T04:25:27;21.50;99.90
3312;DHT22;1668;49.648;8.570;2022-07-23T04:27:54;21.40;99.90
3312;DHT22;1668;49.648;8.570;2022-07-23T04:30:21;21.40;99.90
3312;DHT22;1668;49.648;8.570;2022-07-23T04:32:49;21.50;99.90
3312;DHT22;1668;49.648;8.570;2022-07-23T04:35:16;21.50;99.90
3312;DHT22;1668;49.648;8.570;2022-07-23T04:37:43;21.40;99.90
3312;DHT22;1668;49.648;8.570;2022-07-23T04:40:11;21.40;99.90
3312;DHT22;1668;49.648;8.570;2022-07-23T04:42:39;21.40;99.90
3312;DHT22;1668;49.648;8.570;2022-07-23T04:45:07;21.40;99.90
3312;DHT22;1668;49.648;8.570;2022-07-23T04:47:34;21.30;99.90
3312;DHT22;1668;49.648;8.570;2022-07-23T04:50:02;21.20;99.90
3312;DHT22;1668;49.648;8.570;2022-07-23T04:52:29;21.10;99.90
3312;DHT22;1668;49.648;8.570;2022-07-23T04:54:56;20.90;99.90
3312;DHT22;1668;49.648;8.570;2022-07-23T04:57:23;20.90;99.90
3312;DHT22;1668;49.648;8.570;2022-07-23T04:59:50;21.00;99.90
3312;DHT22;1668;49.648;8.570;2022-07-23T05:02:17;21.00;99.90
3312;DHT22;1668;49.648;8.570;2022-07-23T05:04:44;21.00;99.90
3312;DHT22;1668;49.648;8.570;2022-07-23T05:07:12;21.10;99.90
3312;DHT22;1668;49.648;8.570;2022-07-23T05:09:39;21.00;99.90
3312;DHT22;1668;49.648;8.570;2022-07-23T05:12:07;21.00;99.90
3312;DHT22;1668;49.648;8.570;2022-07-23T05:14:34;21.00;99.90
3312;DHT22;1668;49.648;8.570;2022-07-23T05:17:01;21.00;99.90
3312;DHT22;1668;49.648;8.570;2022-07-23T05:19:28;21.10;99.90
3312;DHT22;1668;49.648;8.570;2022-07-23T05:21:55;21.00;99.90
3312;DHT22;1668;49.648;8.570;2022-07-23T05:24:23;21.00;99.90
3312;DHT22;1668;49.648;8.570;2022-07-23T05:26:50;21.00;99.90
3312;DHT22;1668;49.648;8.570;2022-07-23T05:29:17;21.00;99.90
3312;DHT22;1668;49.648;8.570;2022-07-23T05:31:44;21.00;99.90
3312;DHT22;1668;49.648;8.570;2022-07-23T05:34:11;20.90;99.90
3312;DHT22;1668;49.648;8.570;2022-07-23T05:36:38;20.80;99.90
3312;DHT22;1668;49.648;8.570;2022-07-23T05:39:05;20.90;99.90
3312;DHT22;1668;49.648;8.570;2022-07-23T05:41:33;20.90;99.90
3312;DHT22;1668;49.648;8.570;2022-07-23T05:44:00;21.00;99.90
3312;DHT22;1668;49.648;8.570;2022-07-23T05:46:27;21.00;99.90
3312;DHT22;1668;49.648;8.570;2022-07-23T05:48:54;21.00;99.90
3312;DHT22;1668;49.648;8.570;2022-07-23T05:51:21;21.00;99.90
3312;DHT22;1668;49.648;8.570;2022-07-23T05:53:48;21.00;99.90
3312;DHT22;1668;49.648;8.570;2022-07-23T05:56:16;21.00;99.90
3312;DHT22;1668;49.648;8.570;2022-07-23T05:58:44;20.90;99.90
3312;DHT22;1668;49.648;8.570;2022-07-23T06:01:11;20.90;99.90
3312;DHT22;1668;49.648;8.570;2022-07-23T06:03:38;20.80;99.90
3312;DHT22;1668;49.648;8.570;2022-07-23T06:06:06;20.80;99.90
3312;DHT22;1668;49.648;8.570;2022-07-23T06:08:33;20.80;99.90
3312;DHT22;1668;49.648;8.570;2022-07-23T06:11:00;20.80;99.90
3312;DHT22;1668;49.648;8.570;2022-07-23T06:13:27;20.70;99.90
3312;DHT22;1668;49.648;8.570;2022-07-23T06:15:55;20.70;99.90
3312;DHT22;1668;49.648;8.570;2022-07-23T06:18:22;20.80;99.90
3312;DHT22;1668;49.648;8.570;2022-07-23T06:20:49;20.80;99.90
3312;DHT22;1668;49.648;8.570;2022-07-23T06:23:16;20.90;99.90
3312;DHT22;1668;49.648;8.570;2022-07-23T06:25:43;20.70;99.90
3312;DHT22;1668;49.648;8.570;2022-07-23T06:28:10;20.70;99.90
3312;DHT22;1668;49.648;8.570;2022-07-23T06:30:36;20.80;99.90
3312;DHT22;1668;49.648;8.570;2022-07-23T06:33:05;20.80;99.90
3312;DHT22;1668;49.648;8.570;2022-07-23T06:35:32;20.80;99.90
3312;DHT22;1668;49.648;8.570;2022-07-23T06:38:00;20.80;99.90
3312;DHT22;1668;49.648;8.570;2022-07-23T06:40:27;20.80;99.90
3312;DHT22;1668;49.648;8.570;2022-07-23T06:42:54;20.90;99.90
3312;DHT22;1668;49.648;8.570;2022-07-23T06:45:21;20.90;99.90
3312;DHT22;1668;49.648;8.570;2022-07-23T06:47:48;20.90;99.90
3312;DHT22;1668;49.648;8.570;2022-07-23T06:50:17;21.00;99.90
3312;DHT22;1668;49.648;8.570;2022-07-23T06:52:48;21.00;99.90
3312;DHT22;1668;49.648;8.570;2022-07-23T06:55:15;21.00;99.90
3312;DHT22;1668;49.648;8.570;2022-07-23T06:57:41;20.90;99.90
3312;DHT22;1668;49.648;8.570;2022-07-23T07:00:10;21.00;99.90
3312;DHT22;1668;49.648;8.570;2022-07-23T07:02:37;21.00;99.90
3312;DHT22;1668;49.648;8.570;2022-07-23T07:05:04;21.10;99.90
3312;DHT22;1668;49.648;8.570;2022-07-23T07:07:33;21.20;99.90
3312;DHT22;1668;49.648;8.570;2022-07-23T07:10:00;21.20;99.90
3312;DHT22;1668;49.648;8.570;2022-07-23T07:12:27;21.20;99.90
3312;DHT22;1668;49.648;8.570;2022-07-23T07:14:54;21.20;99.90
3312;DHT22;1668;49.648;8.570;2022-07-23T07:17:22;21.30;99.90
3312;DHT22;1668;49.648;8.570;2022-07-23T07:19:49;21.30;99.90
3312;DHT22;1668;49.648;8.570;2022-07-23T07:22:16;21.40;99.90
3312;DHT22;1668;49.648;8.570;2022-07-23T07:24:44;21.40;99.90
3312;DHT22;1668;49.648;8.570;2022-07-23T07:27:11;21.50;99.90
3312;DHT22;1668;49.648;8.570;2022-07-23T07:29:39;21.50;99.90
3312;DHT22;1668;49.648;8.570;2022-07-23T07:32:06;21.40;99.90
3312;DHT22;1668;49.648;8.570;2022-07-23T07:34:33;21.40;99.90
3312;DHT22;1668;49.648;8.570;2022-07-23T07:37:00;21.40;99.90
3312;DHT22;1668;49.648;8.570;2022-07-23T07:39:27;21.50;99.90
3312;DHT22;1668;49.648;8.570;2022-07-23T07:41:55;21.50;99.90
3312;DHT22;1668;49.648;8.570;2022-07-23T07:44:22;21.60;99.90
3312;DHT22;1668;49.648;8.570;2022-07-23T07:46:49;21.60;99.90
3312;DHT22;1668;49.648;8.570;2022-07-23T07:49:16;21.60;99.90
3312;DHT22;1668;49.648;8.570;2022-07-23T07:51:45;21.60;99.90
3312;DHT22;1668;49.648;8.570;2022-07-23T07:54:12;21.70;99.90
3312;DHT22;1668;49.648;8.570;2022-07-23T07:56:39;21.70;99.90
3312;DHT22;1668;49.648;8.570;2022-07-23T07:59:07;21.80;99.90
3312;DHT22;1668;49.648;8.570;2022-07-23T08:01:34;21.80;99.90
3312;DHT22;1668;49.648;8.570;2022-07-23T08:04:01;21.80;99.90
3312;DHT22;1668;49.648;8.570;2022-07-23T08:06:28;21.90;99.90
3312;DHT22;1668;49.648;8.570;2022-07-23T08:08:55;21.80;99.90
3312;DHT22;1668;49.648;8.570;2022-07-23T08:11:22;21.90;99.90
3312;DHT22;1668;49.648;8.570;2022-07-23T08:13:48;22.00;99.90
3312;DHT22;1668;49.648;8.570;2022-07-23T08:16:17;22.10;99.90
3312;DHT22;1668;49.648;8.570;2022-07-23T08:18:44;22.20;99.90
3312;DHT22;1668;49.648;8.570;2022-07-23T08:21:11;22.10;99.90
3312;DHT22;1668;49.648;8.570;2022-07-23T08:23:38;22.20;99.90
3312;DHT22;1668;49.648;8.570;2022-07-23T08:26:04;22.20;99.90
3312;DHT22;1668;49.648;8.570;2022-07-23T08:28:31;22.20;99.90
3312;DHT22;1668;49.648;8.570;2022-07-23T08:30:59;22.20;99.90
3312;DHT22;1668;49.648;8.570;2022-07-23T08:33:28;22.30;99.90
3312;DHT22;1668;49.648;8.570;2022-07-23T08:35:55;22.40;99.90
3312;DHT22;1668;49.648;8.570;2022-07-23T08:38:22;22.50;99.90
3312;DHT22;1668;49.648;8.570;2022-07-23T08:40:51;22.50;99.90
3312;DHT22;1668;49.648;8.570;2022-07-23T08:43:20;22.40;99.90
3312;DHT22;1668;49.648;8.570;2022-07-23T08:45:49;22.50;99.90
3312;DHT22;1668;49.648;8.570;2022-07-23T08:48:18;22.60;99.90
3312;DHT22;1668;49.648;8.570;2022-07-23T08:50:48;22.60;99.90
3312;DHT22;1668;49.648;8.570;2022-07-23T08:53:16;22.70;99.90
3312;DHT22;1668;49.648;8.570;2022-07-23T08:55:44;22.80;99.90
3312;DHT22;1668;49.648;8.570;2022-07-23T08:58:12;22.90;99.90
3312;DHT22;1668;49.648;8.570;2022-07-23T09:00:39;22.90;99.90
3312;DHT22;1668;49.648;8.570;2022-07-23T09:03:06;23.00;99.90
3312;DHT22;1668;49.648;8.570;2022-07-23T09:05:33;23.10;99.90
3312;DHT22;1668;49.648;8.570;2022-07-23T09:08:10;23.10;99.90
3312;DHT22;1668;49.648;8.570;2022-07-23T09:10:50;23.10;99.90
3312;DHT22;1668;49.648;8.570;2022-07-23T09:13:35;23.20;99.90
3312;DHT22;1668;49.648;8.570;2022-07-23T09:16:06;23.20;99.90
3312;DHT22;1668;49.648;8.570;2022-07-23T09:18:36;23.20;99.90
3312;DHT22;1668;49.648;8.570;2022-07-23T09:21:13;23.20;99.90
3312;DHT22;1668;49.648;8.570;2022-07-23T09:23:44;23.40;99.90
3312;DHT22;1668;49.648;8.570;2022-07-23T09:26:20;23.60;99.90
3312;DHT22;1668;49.648;8.570;2022-07-23T09:28:53;23.50;99.90
3312;DHT22;1668;49.648;8.570;2022-07-23T09:31:21;23.60;99.90
3312;DHT22;1668;49.648;8.570;2022-07-23T09:33:48;23.70;99.90
3312;DHT22;1668;49.648;8.570;2022-07-23T09:36:15;23.80;99.90
3312;DHT22;1668;49.648;8.570;2022-07-23T09:38:50;23.90;99.90
3312;DHT22;1668;49.648;8.570;2022-07-23T09:41:17;23.90;99.90
3312;DHT22;1668;49.648;8.570;2022-07-23T09:43:44;24.00;99.90
3312;DHT22;1668;49.648;8.570;2022-07-23T09:46:21;24.00;99.90
3312;DHT22;1668;49.648;8.570;2022-07-23T09:48:50;24.10;99.90
3312;DHT22;1668;49.648;8.570;2022-07-23T09:51:22;24.20;99.90
3312;DHT22;1668;49.648;8.570;2022-07-23T09:53:54;24.20;99.90
3312;DHT22;1668;49.648;8.570;2022-07-23T09:56:22;24.40;99.90
3312;DHT22;1668;49.648;8.570;2022-07-23T09:58:50;24.50;99.90
3312;DHT22;1668;49.648;8.570;2022-07-23T10:01:27;24.70;99.90
3312;DHT22;1668;49.648;8.570;2022-07-23T10:03:55;24.80;99.90
3312;DHT22;1668;49.648;8.570;2022-07-23T10:06:23;24.80;99.90
3312;DHT22;1668;49.648;8.570;2022-07-23T10:08:51;24.80;99.90
3312;DHT22;1668;49.648;8.570;2022-07-23T10:11:23;24.80;99.90
3312;DHT22;1668;49.648;8.570;2022-07-23T10:13:51;25.00;99.90
3312;DHT22;1668;49.648;8.570;2022-07-23T10:16:22;24.90;99.90
3312;DHT22;1668;49.648;8.570;2022-07-23T10:18:49;25.00;99.90
3312;DHT22;1668;49.648;8.570;2022-07-23T10:21:21;25.00;99.90
3312;DHT22;1668;49.648;8.570;2022-07-23T10:24:01;25.30;99.90
3312;DHT22;1668;49.648;8.570;2022-07-23T10:26:37;25.50;99.90
3312;DHT22;1668;49.648;8.570;2022-07-23T10:29:16;25.50;99.50
3312;DHT22;1668;49.648;8.570;2022-07-23T10:31:52;25.50;99.80
3312;DHT22;1668;49.648;8.570;2022-07-23T10:34:30;25.70;99.50
3312;DHT22;1668;49.648;8.570;2022-07-23T10:37:02;25.90;98.90
3312;DHT22;1668;49.648;8.570;2022-07-23T10:39:32;25.80;97.90
3312;DHT22;1668;49.648;8.570;2022-07-23T10:42:12;25.90;98.00
3312;DHT22;1668;49.648;8.570;2022-07-23T10:44:41;25.90;98.60
3312;DHT22;1668;49.648;8.570;2022-07-23T10:47:09;26.20;97.70
3312;DHT22;1668;49.648;8.570;2022-07-23T10:50:19;26.20;97.00
3312;DHT22;1668;49.648;8.570;2022-07-23T10:53:11;26.20;97.00
3312;DHT22;1668;49.648;8.570;2022-07-23T10:55:50;26.40;97.30
3312;DHT22;1668;49.648;8.570;2022-07-23T10:58:25;26.30;97.10
3312;DHT22;1668;49.648;8.570;2022-07-23T11:01:31;26.20;97.10
3312;DHT22;1668;49.648;8.570;2022-07-23T11:03:59;26.50;96.60
3312;DHT22;1668;49.648;8.570;2022-07-23T11:09:26;26.70;96.40
3312;DHT22;1668;49.648;8.570;2022-07-23T11:15:02;26.90;96.40
3312;DHT22;1668;49.648;8.570;2022-07-23T11:17:31;26.90;94.90
3312;DHT22;1668;49.648;8.570;2022-07-23T11:20:17;27.00;95.60
3312;DHT22;1668;49.648;8.570;2022-07-23T11:22:50;27.10;93.80
3312;DHT22;1668;49.648;8.570;2022-07-23T11:25:36;27.00;93.90
3312;DHT22;1668;49.648;8.570;2022-07-23T11:28:16;27.00;93.50
3312;DHT22;1668;49.648;8.570;2022-07-23T11:30:48;27.10;93.10
3312;DHT22;1668;49.648;8.570;2022-07-23T11:33:20;27.20;93.80
3312;DHT22;1668;49.648;8.570;2022-07-23T11:35:50;27.40;94.00
3312;DHT22;1668;49.648;8.570;2022-07-23T11:38:25;27.50;93.90
3312;DHT22;1668;49.648;8.570;2022-07-23T11:40:54;27.50;93.30
3312;DHT22;1668;49.648;8.570;2022-07-23T11:43:23;27.70;90.90
3312;DHT22;1668;49.648;8.570;2022-07-23T11:45:53;27.80;91.40
3312;DHT22;1668;49.648;8.570;2022-07-23T11:48:22;27.70;89.50
3312;DHT22;1668;49.648;8.570;2022-07-23T11:50:51;27.70;91.90
3312;DHT22;1668;49.648;8.570;2022-07-23T11:53:22;27.60;90.80
3312;DHT22;1668;49.648;8.570;2022-07-23T11:55:50;27.50;88.80
3312;DHT22;1668;49.648;8.570;2022-07-23T11:58:23;27.60;90.20
3312;DHT22;1668;49.648;8.570;2022-07-23T12:00:51;27.80;89.30
3312;DHT22;1668;49.648;8.570;2022-07-23T12:03:22;27.80;88.90
3312;DHT22;1668;49.648;8.570;2022-07-23T12:05:49;27.80;87.90
3312;DHT22;1668;49.648;8.570;2022-07-23T12:08:16;27.60;88.90
3312;DHT22;1668;49.648;8.570;2022-07-23T12:10:44;27.50;89.30
3312;DHT22;1668;49.648;8.570;2022-07-23T12:13:13;27.50;88.40
3312;DHT22;1668;49.648;8.570;2022-07-23T12:15:43;27.50;87.50
3312;DHT22;1668;49.648;8.570;2022-07-23T12:18:13;27.50;86.40
3312;DHT22;1668;49.648;8.570;2022-07-23T12:20:43;27.50;88.10
3312;DHT22;1668;49.648;8.570;2022-07-23T12:23:12;27.70;87.40
3312;DHT22;1668;49.648;8.570;2022-07-23T12:25:42;27.70;87.10
3312;DHT22;1668;49.648;8.570;2022-07-23T12:28:11;27.80;88.10
3312;DHT22;1668;49.648;8.570;2022-07-23T12:30:39;27.90;86.60
3312;DHT22;1668;49.648;8.570;2022-07-23T12:33:09;28.00;89.80
3312;DHT22;1668;49.648;8.570;2022-07-23T12:35:39;28.10;85.90
3312;DHT22;1668;49.648;8.570;2022-07-23T12:38:08;28.30;86.60
3312;DHT22;1668;49.648;8.570;2022-07-23T12:40:42;28.30;83.80
3312;DHT22;1668;49.648;8.570;2022-07-23T12:43:11;28.30;84.30
3312;DHT22;1668;49.648;8.570;2022-07-23T12:45:46;28.20;85.00
3312;DHT22;1668;49.648;8.570;2022-07-23T12:48:17;28.40;84.30
3312;DHT22;1668;49.648;8.570;2022-07-23T12:50:50;28.40;82.80
3312;DHT22;1668;49.648;8.570;2022-07-23T12:53:19;28.50;83.40
3312;DHT22;1668;49.648;8.570;2022-07-23T12:55:47;28.50;84.40
3312;DHT22;1668;49.648;8.570;2022-07-23T12:58:17;28.40;85.00
3312;DHT22;1668;49.648;8.570;2022-07-23T13:00:52;28.40;83.50
3312;DHT22;1668;49.648;8.570;2022-07-23T13:03:25;28.40;83.60
3312;DHT22;1668;49.648;8.570;2022-07-23T13:05:54;28.40;83.50
3312;DHT22;1668;49.648;8.570;2022-07-23T13:08:22;28.40;84.70
3312;DHT22;1668;49.648;8.570;2022-07-23T13:10:50;28.10;84.00
3312;DHT22;1668;49.648;8.570;2022-07-23T13:13:21;28.10;83.90
3312;DHT22;1668;49.648;8.570;2022-07-23T13:15:49;28.10;83.60
3312;DHT22;1668;49.648;8.570;2022-07-23T13:18:17;28.20;83.60
3312;DHT22;1668;49.648;8.570;2022-07-23T13:20:45;28.20;84.10
3312;DHT22;1668;49.648;8.570;2022-07-23T13:23:14;28.20;83.90
3312;DHT22;1668;49.648;8.570;2022-07-23T13:25:42;28.10;83.10
3312;DHT22;1668;49.648;8.570;2022-07-23T13:28:09;28.10;82.70
3312;DHT22;1668;49.648;8.570;2022-07-23T13:30:36;28.10;83.60
3312;DHT22;1668;49.648;8.570;2022-07-23T13:33:04;28.20;83.60
3312;DHT22;1668;49.648;8.570;2022-07-23T13:35:31;28.40;84.90
3312;DHT22;1668;49.648;8.570;2022-07-23T13:37:58;28.70;81.80
3312;DHT22;1668;49.648;8.570;2022-07-23T13:40:27;28.90;81.80
3312;DHT22;1668;49.648;8.570;2022-07-23T13:42:54;29.00;81.80
3312;DHT22;1668;49.648;8.570;2022-07-23T13:45:21;29.10;79.20
3312;DHT22;1668;49.648;8.570;2022-07-23T13:47:48;29.10;79.40
3312;DHT22;1668;49.648;8.570;2022-07-23T13:50:15;29.30;78.30
3312;DHT22;1668;49.648;8.570;2022-07-23T13:52:42;29.60;75.90
3312;DHT22;1668;49.648;8.570;2022-07-23T13:55:10;29.70;75.20
3312;DHT22;1668;49.648;8.570;2022-07-23T13:57:38;29.90;75.40
3312;DHT22;1668;49.648;8.570;2022-07-23T14:00:07;30.00;72.50
3312;DHT22;1668;49.648;8.570;2022-07-23T14:02:36;30.20;72.90
3312;DHT22;1668;49.648;8.570;2022-07-23T14:05:05;30.40;72.40
3312;DHT22;1668;49.648;8.570;2022-07-23T14:07:32;30.50;72.00
3312;DHT22;1668;49.648;8.570;2022-07-23T14:09:59;30.70;72.60
3312;DHT22;1668;49.648;8.570;2022-07-23T14:12:27;30.50;71.70
3312;DHT22;1668;49.648;8.570;2022-07-23T14:14:55;30.50;71.90
3312;DHT22;1668;49.648;8.570;2022-07-23T14:17:22;30.50;71.60
3312;DHT22;1668;49.648;8.570;2022-07-23T14:19:50;30.60;70.70
3312;DHT22;1668;49.648;8.570;2022-07-23T14:22:17;30.70;71.20
3312;DHT22;1668;49.648;8.570;2022-07-23T14:24:44;30.80;70.10
3312;DHT22;1668;49.648;8.570;2022-07-23T14:27:11;30.70;69.30
3312;DHT22;1668;49.648;8.570;2022-07-23T14:29:38;30.80;69.40
3312;DHT22;1668;49.648;8.570;2022-07-23T14:32:07;31.20;67.60
3312;DHT22;1668;49.648;8.570;2022-07-23T14:34:35;31.00;66.20
3312;DHT22;1668;49.648;8.570;2022-07-23T14:37:02;31.30;66.20
3312;DHT22;1668;49.648;8.570;2022-07-23T14:39:29;31.60;65.00
3312;DHT22;1668;49.648;8.570;2022-07-23T14:41:57;31.60;63.80
3312;DHT22;1668;49.648;8.570;2022-07-23T14:44:24;31.70;64.30
3312;DHT22;1668;49.648;8.570;2022-07-23T14:46:50;31.80;64.20
3312;DHT22;1668;49.648;8.570;2022-07-23T14:49:19;32.00;63.60
3312;DHT22;1668;49.648;8.570;2022-07-23T14:51:46;31.90;64.20
3312;DHT22;1668;49.648;8.570;2022-07-23T14:54:13;31.80;63.60
3312;DHT22;1668;49.648;8.570;2022-07-23T14:56:40;31.60;61.80
3312;DHT22;1668;49.648;8.570;2022-07-23T14:59:07;31.20;60.70
3312;DHT22;1668;49.648;8.570;2022-07-23T15:01:34;31.00;62.00
3312;DHT22;1668;49.648;8.570;2022-07-23T15:04:02;31.00;61.10
3312;DHT22;1668;49.648;8.570;2022-07-23T15:06:30;31.20;60.60
3312;DHT22;1668;49.648;8.570;2022-07-23T15:08:57;31.30;60.40
3312;DHT22;1668;49.648;8.570;2022-07-23T15:11:24;31.20;60.20
3312;DHT22;1668;49.648;8.570;2022-07-23T15:13:51;31.10;60.20
3312;DHT22;1668;49.648;8.570;2022-07-23T15:16:18;31.00;61.50
3312;DHT22;1668;49.648;8.570;2022-07-23T15:18:50;30.90;60.00
3312;DHT22;1668;49.648;8.570;2022-07-23T15:21:17;31.00;59.50
3312;DHT22;1668;49.648;8.570;2022-07-23T15:23:45;30.90;60.80
3312;DHT22;1668;49.648;8.570;2022-07-23T15:26:14;31.00;59.60
3312;DHT22;1668;49.648;8.570;2022-07-23T15:28:41;31.10;59.30
3312;DHT22;1668;49.648;8.570;2022-07-23T15:31:08;31.40;59.20
3312;DHT22;1668;49.648;8.570;2022-07-23T15:33:35;31.40;57.70
3312;DHT22;1668;49.648;8.570;2022-07-23T15:36:03;31.50;57.30
3312;DHT22;1668;49.648;8.570;2022-07-23T15:38:31;31.80;57.60
3312;DHT22;1668;49.648;8.570;2022-07-23T15:41:00;31.90;56.50
3312;DHT22;1668;49.648;8.570;2022-07-23T15:43:26;31.90;55.30
3312;DHT22;1668;49.648;8.570;2022-07-23T15:45:53;31.60;55.00
3312;DHT22;1668;49.648;8.570;2022-07-23T15:48:21;31.50;55.80
3312;DHT22;1668;49.648;8.570;2022-07-23T15:50:48;31.40;55.40
3312;DHT22;1668;49.648;8.570;2022-07-23T15:53:16;31.40;55.70
3312;DHT22;1668;49.648;8.570;2022-07-23T15:55:43;31.30;56.50
3312;DHT22;1668;49.648;8.570;2022-07-23T15:58:13;31.30;55.00
3312;DHT22;1668;49.648;8.570;2022-07-23T16:00:40;31.30;54.80
3312;DHT22;1668;49.648;8.570;2022-07-23T16:03:07;31.50;55.30
3312;DHT22;1668;49.648;8.570;2022-07-23T16:05:34;31.80;53.50
3312;DHT22;1668;49.648;8.570;2022-07-23T16:08:03;31.90;53.20
3312;DHT22;1668;49.648;8.570;2022-07-23T16:10:30;32.10;52.70
3312;DHT22;1668;49.648;8.570;2022-07-23T16:12:57;32.30;52.20
3312;DHT22;1668;49.648;8.570;2022-07-23T16:15:25;32.40;52.90